Pilot Boat Vega — VEGA — position and weather

sailwx.info

Track history (hours):
 
Tides and Currents Weather Stations Pressure Air Temp Water Temp Dewpoint Dewpoint Depression Visibility Wind Speed Wind Dir Waves Ship Positions

Pilot Boat Vega

Last reported at 2017-Sep-22 01:59 UTC. Time now 2017-Sep-22 20:50 UTC.
Position N 33°45' W 118°14'.

Length 16 m; draft 1.5 m.

Type: Pilot. MMSI: 338037843.

Date/timePositionNaut miles runAvg speedWind from/ knotsBaromVisibWave heightAir tempDewpointWater temp
2017-Sep-22 01:59N 33°45' W 118°14'3 5.4
2017-Sep-22 01:27N 33°43' W 118°11'2 3.0
2017-Sep-22 00:53N 33°45' W 118°11'2 3.6
2017-Sep-22 00:28N 33°45' W 118°13'0 0.0
2017-Sep-21 23:14N 33°45' W 118°13'0 0.0
2017-Sep-21 23:00N 33°45' W 118°13'0 0.0
2017-Sep-21 22:25N 33°45' W 118°13'0 0.1
2017-Sep-21 21:48N 33°45' W 118°13'1 3.4
2017-Sep-21 21:30N 33°44' W 118°12'1 2.4
2017-Sep-21 21:00N 33°43' W 118°11'4 7.9
2017-Sep-21 20:30N 33°40' W 118°11'4 7.6
2017-Sep-21 19:59N 33°44' W 118°11'1 2.9
2017-Sep-21 19:28N 33°44' W 118°12'1 0.5
2017-Sep-21 17:32N 33°45' W 118°13'0 0.0
2017-Sep-21 17:30N 33°45' W 118°13'3 5.1
2017-Sep-21 16:59N 33°44' W 118°10'3 5.8
2017-Sep-21 16:30N 33°45' W 118°13'2 4.5
2017-Sep-21 15:58N 33°44' W 118°11'2 4.4
2017-Sep-21 15:25N 33°41' W 118°11'4 8.2
2017-Sep-21 14:56N 33°45' W 118°13'510.5
2017-Sep-21 14:25N 33°40' W 118°09'513.3
2017-Sep-21 14:00N 33°45' W 118°13'1 1.9
2017-Sep-21 13:26N 33°44' W 118°12'3 5.4
2017-Sep-21 12:52N 33°41' W 118°11'411.1
2017-Sep-21 12:30N 33°45' W 118°13'4 7.6
2017-Sep-21 12:00N 33°41' W 118°11'0 0.5
2017-Sep-21 11:19N 33°41' W 118°11'412.6
2017-Sep-21 11:00N 33°45' W 118°13'0 0.0
2017-Sep-21 10:30N 33°45' W 118°13'0 0.0
2017-Sep-21 10:00N 33°45' W 118°13'0 0.0
2017-Sep-21 09:30N 33°45' W 118°13'0 0.0
2017-Sep-21 04:33N 33°45' W 118°13'0 0.0
2017-Sep-21 04:28N 33°45' W 118°13'0 0.0
2017-Sep-21 04:00N 33°45' W 118°13'0 0.0
2017-Sep-21 03:29N 33°45' W 118°13'0 0.0
2017-Sep-21 02:37N 33°45' W 118°13'0 0.0
2017-Sep-21 02:29N 33°45' W 118°13'0 0.0
2017-Sep-21 01:58N 33°45' W 118°13'0 0.0
2017-Sep-21 01:30N 33°45' W 118°13'0 0.0
2017-Sep-21 00:55N 33°45' W 118°13'0 0.0
2017-Sep-21 00:30N 33°45' W 118°13'0 0.0
2017-Sep-21 00:00N 33°45' W 118°13'0 0.0
2017-Sep-20 23:30N 33°45' W 118°13'0 0.0
2017-Sep-20 23:00N 33°45' W 118°13'0 0.0
2017-Sep-20 21:47N 33°45' W 118°13'0 0.0
2017-Sep-20 21:28N 33°45' W 118°13'0 0.0
2017-Sep-20 20:59N 33°45' W 118°13'0 0.0
2017-Sep-20 20:28N 33°45' W 118°13'0 0.0
2017-Sep-20 19:59N 33°45' W 118°13'0 0.0
2017-Sep-20 19:30N 33°45' W 118°13'0 0.0
2017-Sep-20 19:00N 33°45' W 118°13'0 0.0
2017-Sep-20 18:10N 33°45' W 118°13'0 0.0
2017-Sep-20 18:00N 33°45' W 118°13'0 0.0
2017-Sep-20 16:54N 33°45' W 118°13'0 0.0
2017-Sep-20 16:30N 33°45' W 118°13'0 0.0
2017-Sep-20 15:42N 33°45' W 118°13'0 0.0
2017-Sep-20 15:30N 33°45' W 118°13'0 0.0
2017-Sep-20 14:56N 33°45' W 118°13'0 0.0
2017-Sep-20 14:00N 33°45' W 118°13'0 0.0
2017-Sep-20 13:30N 33°45' W 118°13'0 0.0
2017-Sep-20 13:00N 33°45' W 118°13'0 0.0
2017-Sep-20 12:29N 33°45' W 118°13'0 0.0
2017-Sep-20 12:00N 33°45' W 118°13'0 0.0
2017-Sep-20 11:30N 33°45' W 118°13'0 0.0
2017-Sep-20 11:00N 33°45' W 118°13'0 0.0
2017-Sep-20 10:30N 33°45' W 118°13'0 0.0
2017-Sep-20 10:00N 33°45' W 118°13'0 0.0
2017-Sep-20 09:29N 33°45' W 118°13'0 0.0
2017-Sep-20 07:52N 33°45' W 118°13'0 0.0
2017-Sep-20 02:27N 33°45' W 118°13'0 0.0
2017-Sep-20 00:24N 33°45' W 118°13'0 0.0
2017-Sep-19 23:59N 33°45' W 118°13'0 0.0
2017-Sep-19 23:10N 33°45' W 118°13'0 0.0
2017-Sep-19 22:59N 33°45' W 118°13'0 0.0
2017-Sep-19 22:30N 33°45' W 118°13'0 0.0
2017-Sep-19 22:00N 33°45' W 118°13'0 0.0
2017-Sep-19 21:29N 33°45' W 118°13'0 0.0
2017-Sep-19 21:00N 33°45' W 118°13'0 0.0
2017-Sep-19 20:29N 33°45' W 118°13'0 0.0
2017-Sep-19 19:52N 33°45' W 118°13'0 0.0
2017-Sep-19 19:30N 33°45' W 118°13'0 0.0
2017-Sep-19 18:58N 33°45' W 118°13'0 0.0
2017-Sep-19 18:17N 33°45' W 118°13'0 0.0
2017-Sep-19 17:57N 33°45' W 118°13'0 0.0
2017-Sep-19 17:28N 33°45' W 118°13'0 0.0
2017-Sep-19 16:50N 33°45' W 118°13'0 0.0
2017-Sep-19 16:26N 33°45' W 118°13'0 0.0
2017-Sep-19 15:55N 33°45' W 118°13'3 6.8
2017-Sep-19 15:30N 33°44' W 118°16'2 3.6
2017-Sep-19 15:00N 33°43' W 118°15'2 2.4
2017-Sep-19 14:03N 33°45' W 118°13'0 0.0
2017-Sep-19 13:49N 33°45' W 118°13'0 0.0
2017-Sep-19 13:22N 33°45' W 118°13'0 0.0
2017-Sep-18 23:35N 33°45' W 118°13'0 0.0
2017-Sep-18 23:22N 33°45' W 118°13'0 0.0
2017-Sep-18 22:58N 33°45' W 118°13'0 0.0
2017-Sep-18 22:30N 33°45' W 118°13'0 0.0
2017-Sep-18 21:59N 33°45' W 118°13'0 0.0
2017-Sep-18 21:29N 33°45' W 118°13'0 0.0
2017-Sep-18 21:00N 33°45' W 118°13'0 0.0
2017-Sep-18 20:29N 33°45' W 118°13'0 0.0
2017-Sep-18 19:59N 33°45' W 118°13'0 0.0
2017-Sep-18 19:29N 33°45' W 118°13'0 0.0
2017-Sep-18 18:52N 33°45' W 118°13'0 0.0
2017-Sep-18 18:30N 33°45' W 118°13'0 0.0
2017-Sep-18 18:00N 33°45' W 118°13'0 0.0
2017-Sep-18 17:17N 33°45' W 118°13'0 0.0
2017-Sep-18 16:57N 33°45' W 118°13'3 7.5
2017-Sep-18 16:29N 33°42' W 118°15'3 2.0
2017-Sep-18 14:43N 33°45' W 118°13'0 0.0
2017-Sep-18 14:17N 33°45' W 118°13'0 0.0
2017-Sep-18 13:56N 33°45' W 118°13'0 0.0
2017-Sep-18 13:30N 33°45' W 118°13'0 0.0
2017-Sep-18 12:52N 33°45' W 118°13'0 0.0
2017-Sep-18 12:09N 33°45' W 118°13'0 0.0
2017-Sep-18 11:56N 33°45' W 118°13'0 0.0
2017-Sep-18 11:21N 33°45' W 118°13'0 0.0
2017-Sep-18 10:55N 33°45' W 118°13'0 0.0
2017-Sep-18 01:35N 33°45' W 118°13'117.3
2017-Sep-18 01:30N 33°44' W 118°12'3 2.9
2017-Sep-18 00:32N 33°42' W 118°15'120.4
2017-Sep-18 00:30N 33°43' W 118°14'2 4.3
2017-Sep-18 00:00N 33°45' W 118°13'0 0.5
2017-Sep-17 23:30N 33°45' W 118°13'0 0.4
2017-Sep-17 23:00N 33°45' W 118°13'0 0.0
2017-Sep-17 22:30N 33°45' W 118°13'0 0.0
2017-Sep-17 21:59N 33°45' W 118°13'0 0.0
2017-Sep-17 21:30N 33°45' W 118°13'0 0.0
2017-Sep-17 21:00N 33°45' W 118°13'0 0.0
2017-Sep-17 20:30N 33°45' W 118°13'0 0.0
2017-Sep-17 19:58N 33°45' W 118°13'0 0.0
2017-Sep-17 17:33N 33°45' W 118°13'0 0.0
2017-Sep-17 17:15N 33°45' W 118°13'0 0.0
2017-Sep-17 17:00N 33°45' W 118°13'0 0.0
2017-Sep-17 13:06N 33°45' W 118°13'0 0.0
2017-Sep-17 13:00N 33°45' W 118°13'0 0.0
2017-Sep-17 12:30N 33°45' W 118°13'0 0.0
2017-Sep-17 11:56N 33°45' W 118°13'0 0.0
2017-Sep-17 11:30N 33°45' W 118°13'0 0.0
2017-Sep-17 10:56N 33°45' W 118°13'0 0.0
2017-Sep-17 10:26N 33°45' W 118°13'0 0.0
2017-Sep-17 09:52N 33°45' W 118°13'0 0.0
2017-Sep-17 09:30N 33°45' W 118°13'0 0.0
2017-Sep-17 08:21N 33°45' W 118°13'0 0.0
2017-Sep-17 07:52N 33°45' W 118°13'0 0.0
2017-Sep-17 07:28N 33°45' W 118°13'0 0.0
2017-Sep-17 07:00N 33°45' W 118°13'0 0.0
2017-Sep-17 06:30N 33°45' W 118°13'0 0.0
2017-Sep-17 05:59N 33°45' W 118°13'0 0.0
2017-Sep-17 03:43N 33°45' W 118°13'0 0.0
2017-Sep-17 03:27N 33°45' W 118°13'0 0.0
2017-Sep-17 02:51N 33°45' W 118°13'0 0.0
2017-Sep-17 02:27N 33°45' W 118°13'0 0.0
2017-Sep-17 01:04N 33°45' W 118°13'112.0
2017-Sep-17 01:00N 33°44' W 118°12'2 3.1
2017-Sep-17 00:26N 33°43' W 118°11'3 5.3
2017-Sep-16 23:57N 33°45' W 118°13'0 0.0
2017-Sep-16 23:25N 33°45' W 118°13'0 0.0
2017-Sep-16 23:00N 33°45' W 118°13'0 0.0
2017-Sep-16 22:10N 33°45' W 118°13'0 0.0
2017-Sep-16 21:58N 33°45' W 118°13'0 0.0
2017-Sep-16 21:26N 33°45' W 118°13'0 0.0
2017-Sep-16 21:00N 33°45' W 118°13'0 0.0
2017-Sep-16 20:30N 33°45' W 118°13'0 0.0
2017-Sep-16 19:44N 33°45' W 118°13'0 0.0
2017-Sep-16 19:25N 33°45' W 118°13'0 0.0
2017-Sep-16 16:46N 33°45' W 118°13'0 0.0
2017-Sep-16 16:29N 33°45' W 118°13'0 0.0
2017-Sep-16 15:46N 33°45' W 118°13'0 0.0
2017-Sep-16 08:38N 33°45' W 118°13'0 0.0
2017-Sep-16 07:55N 33°45' W 118°13'0 0.0
2017-Sep-16 07:30N 33°45' W 118°13'0 0.0
2017-Sep-16 07:00N 33°45' W 118°13'0 0.0
2017-Sep-16 06:30N 33°45' W 118°13'0 0.0
2017-Sep-16 06:00N 33°45' W 118°13'0 0.0
2017-Sep-16 05:27N 33°45' W 118°13'0 0.0
2017-Sep-16 04:46N 33°45' W 118°13'0 0.0
2017-Sep-16 04:29N 33°45' W 118°13'0 0.0
2017-Sep-16 03:58N 33°45' W 118°13'0 0.0
2017-Sep-16 03:30N 33°45' W 118°13'5 9.0
2017-Sep-16 03:00N 33°41' W 118°10'2 3.4
2017-Sep-16 02:24N 33°43' W 118°11'1 1.3
2017-Sep-16 01:58N 33°44' W 118°11'1 1.3
2017-Sep-16 01:30N 33°44' W 118°11'1 1.0
2017-Sep-16 00:42N 33°43' W 118°11'2 9.0
2017-Sep-16 00:30N 33°45' W 118°13'1 1.5
2017-Sep-16 00:00N 33°44' W 118°12'1 1.9
2017-Sep-15 23:27N 33°45' W 118°13'0 0.0
2017-Sep-15 22:52N 33°45' W 118°13'0 0.0
2017-Sep-15 21:18N 33°45' W 118°13'0 0.0
2017-Sep-15 20:51N 33°45' W 118°13'0 0.0
2017-Sep-15 20:30N 33°45' W 118°13'0 0.0
2017-Sep-15 20:00N 33°45' W 118°13'0 0.0
2017-Sep-15 19:26N 33°45' W 118°13'0 0.0
2017-Sep-15 18:09N 33°45' W 118°13'0 0.0
2017-Sep-15 17:58N 33°45' W 118°13'0 0.0
2017-Sep-15 17:30N 33°45' W 118°13'0 0.0
2017-Sep-15 17:00N 33°45' W 118°13'0 0.0
2017-Sep-15 16:27N 33°45' W 118°13'0 0.0
2017-Sep-15 15:59N 33°45' W 118°13'0 0.0
2017-Sep-15 15:29N 33°45' W 118°13'0 0.0
2017-Sep-15 14:57N 33°45' W 118°13'0 0.0
2017-Sep-15 14:19N 33°45' W 118°13'0 0.0
2017-Sep-15 13:56N 33°45' W 118°13'0 0.0
2017-Sep-15 13:06N 33°45' W 118°13'0 0.0
2017-Sep-15 12:42N 33°45' W 118°13'0 0.0
2017-Sep-15 12:18N 33°45' W 118°13'0 0.0
2017-Sep-15 09:47N 33°45' W 118°13'0 0.0
2017-Sep-15 09:24N 33°45' W 118°13'0 0.0
2017-Sep-15 08:56N 33°45' W 118°13'0 0.0
2017-Sep-15 08:29N 33°45' W 118°13'0 0.0
2017-Sep-15 08:00N 33°45' W 118°13'0 0.0
2017-Sep-15 07:30N 33°45' W 118°13'0 0.0
2017-Sep-15 06:58N 33°45' W 118°13'0 0.0
2017-Sep-15 06:30N 33°45' W 118°13'0 0.0
2017-Sep-15 06:00N 33°45' W 118°13'0 0.0
2017-Sep-15 05:30N 33°45' W 118°13'0 0.0
2017-Sep-15 04:58N 33°45' W 118°13'0 0.0
2017-Sep-15 01:30N 33°45' W 118°13'0 0.0
2017-Sep-14 22:33N 33°45' W 118°13'0 0.0
2017-Sep-14 22:29N 33°45' W 118°13'0 0.0
2017-Sep-14 21:56N 33°45' W 118°13'0 0.0
2017-Sep-14 21:25N 33°45' W 118°13'0 0.0
2017-Sep-14 20:46N 33°45' W 118°13'0 0.0
2017-Sep-14 20:28N 33°45' W 118°13'0 0.0
2017-Sep-14 20:00N 33°45' W 118°13'0 0.0
2017-Sep-14 19:16N 33°45' W 118°13'0 0.0
2017-Sep-14 18:13N 33°45' W 118°13'0 0.0
2017-Sep-14 17:53N 33°45' W 118°13'0 0.0
2017-Sep-14 17:30N 33°45' W 118°13'0 0.0
2017-Sep-14 17:00N 33°45' W 118°13'0 0.0
2017-Sep-14 16:29N 33°45' W 118°13'0 0.0
2017-Sep-14 15:54N 33°45' W 118°13'0 0.0
2017-Sep-14 15:26N 33°45' W 118°13'0 0.0
2017-Sep-14 15:00N 33°45' W 118°13'0 0.0
2017-Sep-14 12:49N 33°45' W 118°13'1 1.7
2017-Sep-14 12:16N 33°44' W 118°12'1 0.7
2017-Sep-14 10:51N 33°44' W 118°11'2 5.3
2017-Sep-14 10:28N 33°45' W 118°13'0 0.0
2017-Sep-14 09:59N 33°45' W 118°13'0 0.0
2017-Sep-14 09:29N 33°45' W 118°13'0 0.0
2017-Sep-14 09:00N 33°45' W 118°13'0 0.0
2017-Sep-14 08:25N 33°45' W 118°13'0 0.0
2017-Sep-14 07:59N 33°45' W 118°13'0 0.0
2017-Sep-14 07:30N 33°45' W 118°13'0 0.0
2017-Sep-14 05:38N 33°45' W 118°13'0 0.0
2017-Sep-14 05:29N 33°45' W 118°13'0 0.0
2017-Sep-14 04:54N 33°45' W 118°13'0 0.0
2017-Sep-14 04:20N 33°45' W 118°13'0 0.0
2017-Sep-14 03:59N 33°45' W 118°13'0 0.0
2017-Sep-14 03:30N 33°45' W 118°13'0 0.0
2017-Sep-14 02:05N 33°45' W 118°13'0 0.0
2017-Sep-14 01:53N 33°45' W 118°13'0 0.0
2017-Sep-14 01:30N 33°45' W 118°13'0 0.0
2017-Sep-13 23:56N 33°45' W 118°13'0 0.0
2017-Sep-13 23:30N 33°45' W 118°13'0 0.0
2017-Sep-13 23:00N 33°45' W 118°13'0 0.0
2017-Sep-13 22:29N 33°45' W 118°13'0 0.0
2017-Sep-13 21:57N 33°45' W 118°13'0 0.0
2017-Sep-13 21:25N 33°45' W 118°13'0 0.0
2017-Sep-13 21:00N 33°45' W 118°13'0 0.0
2017-Sep-13 20:29N 33°45' W 118°13'0 0.0
2017-Sep-13 20:00N 33°45' W 118°13'0 0.0
2017-Sep-13 19:29N 33°45' W 118°13'0 0.0
2017-Sep-13 19:00N 33°45' W 118°13'0 0.0
2017-Sep-13 18:30N 33°45' W 118°13'0 0.0
2017-Sep-13 17:59N 33°45' W 118°13'0 0.0
2017-Sep-13 17:30N 33°45' W 118°13'0 0.0
2017-Sep-13 16:37N 33°45' W 118°13'0 0.0
2017-Sep-13 16:18N 33°45' W 118°13'0 0.0
2017-Sep-13 15:58N 33°45' W 118°13'0 0.0
2017-Sep-13 15:28N 33°45' W 118°13'0 0.0
2017-Sep-13 15:00N 33°45' W 118°13'0 0.0
2017-Sep-13 14:21N 33°45' W 118°13'0 0.0
2017-Sep-13 13:00N 33°45' W 118°13'0 0.0
2017-Sep-13 12:30N 33°45' W 118°13'0 0.0
2017-Sep-13 11:09N 33°45' W 118°13'0 0.0
2017-Sep-13 11:00N 33°45' W 118°13'0 0.0
2017-Sep-13 09:47N 33°45' W 118°13'0 0.0
2017-Sep-13 09:23N 33°45' W 118°13'0 0.0
2017-Sep-13 08:56N 33°45' W 118°13'0 0.0
2017-Sep-13 08:28N 33°45' W 118°13'0 0.0
2017-Sep-13 07:43N 33°45' W 118°13'0 0.0
2017-Sep-13 07:30N 33°45' W 118°13'0 0.0
2017-Sep-13 06:59N 33°45' W 118°13'0 0.0
2017-Sep-13 02:09N 33°45' W 118°13'0 0.0
2017-Sep-13 01:58N 33°45' W 118°13'0 0.0
2017-Sep-13 01:28N 33°45' W 118°13'0 0.0
2017-Sep-13 00:51N 33°45' W 118°13'0 0.0
2017-Sep-12 23:18N 33°45' W 118°13'0 0.0
2017-Sep-12 22:58N 33°45' W 118°13'0 0.0
2017-Sep-12 22:21N 33°45' W 118°13'0 0.0
2017-Sep-12 22:00N 33°45' W 118°13'0 0.0
2017-Sep-12 21:30N 33°45' W 118°13'0 0.0
2017-Sep-12 20:34N 33°45' W 118°13'0 0.0
2017-Sep-12 20:27N 33°45' W 118°13'0 0.0
2017-Sep-12 19:59N 33°45' W 118°13'0 0.0
2017-Sep-12 18:29N 33°45' W 118°13'0 0.0
2017-Sep-12 17:58N 33°45' W 118°13'0 0.0
2017-Sep-12 17:26N 33°45' W 118°13'0 0.0
2017-Sep-12 16:58N 33°45' W 118°13'0 0.0
2017-Sep-12 16:29N 33°45' W 118°13'0 0.0
2017-Sep-12 15:59N 33°45' W 118°13'0 0.0
2017-Sep-12 15:31N 33°45' W 118°13'0 0.0
2017-Sep-12 14:59N 33°45' W 118°13'0 0.0
2017-Sep-12 14:08N 33°45' W 118°13'0 0.0
2017-Sep-12 14:00N 33°45' W 118°13'0 0.0
2017-Sep-12 13:30N 33°45' W 118°13'0 0.0
2017-Sep-12 13:00N 33°45' W 118°13'0 0.0
2017-Sep-12 12:29N 33°45' W 118°13'0 0.0
2017-Sep-12 12:00N 33°45' W 118°13'0 0.0
2017-Sep-12 11:28N 33°45' W 118°13'0 0.0
2017-Sep-12 11:00N 33°45' W 118°13'0 0.0
2017-Sep-12 10:28N 33°45' W 118°13'0 0.0
2017-Sep-12 10:00N 33°45' W 118°13'0 0.0
2017-Sep-12 08:33N 33°45' W 118°13'0 0.0
2017-Sep-12 08:27N 33°45' W 118°13'0 0.0
2017-Sep-12 08:00N 33°45' W 118°13'0 0.0
2017-Sep-12 07:30N 33°45' W 118°13'0 0.0
2017-Sep-12 06:54N 33°45' W 118°13'1 2.4
2017-Sep-12 06:30N 33°44' W 118°13'2 3.7
2017-Sep-12 06:00N 33°43' W 118°11'2 4.4
2017-Sep-12 05:30N 33°45' W 118°13'0 0.0
2017-Sep-12 04:59N 33°45' W 118°13'0 0.0
2017-Sep-12 04:30N 33°45' W 118°13'0 0.0
2017-Sep-12 04:00N 33°45' W 118°13'3 3.3
2017-Sep-12 03:14N 33°43' W 118°11'0 0.6
2017-Sep-12 02:48N 33°43' W 118°11'3 3.9
2017-Sep-12 02:07N 33°45' W 118°13'0 0.0
2017-Sep-12 02:00N 33°45' W 118°13'  
Track history (hours):
 
Tides and Currents Weather Stations Pressure Air Temp Water Temp Dewpoint Dewpoint Depression Visibility Wind Speed Wind Dir Waves Ship Positions

Pilot Boat Vega

Last reported at 2017-Sep-22 01:59 UTC. Time now 2017-Sep-22 20:50 UTC.
Position N 33°45' W 118°14'.

Length 16 m; draft 1.5 m.

Type: Pilot. MMSI: 338037843.

Date/timePositionNaut miles runAvg speedWind from/ knotsBaromVisibWave heightAir tempDewpointWater temp
2017-Sep-22 01:59N 33°45' W 118°14'3 5.4
2017-Sep-22 01:27N 33°43' W 118°11'2 3.0
2017-Sep-22 00:53N 33°45' W 118°11'2 3.6
2017-Sep-22 00:28N 33°45' W 118°13'0 0.0
2017-Sep-21 23:14N 33°45' W 118°13'0 0.0
2017-Sep-21 23:00N 33°45' W 118°13'0 0.0
2017-Sep-21 22:25N 33°45' W 118°13'0 0.1
2017-Sep-21 21:48N 33°45' W 118°13'1 3.4
2017-Sep-21 21:30N 33°44' W 118°12'1 2.4
2017-Sep-21 21:00N 33°43' W 118°11'4 7.9
2017-Sep-21 20:30N 33°40' W 118°11'4 7.6
2017-Sep-21 19:59N 33°44' W 118°11'1 2.9
2017-Sep-21 19:28N 33°44' W 118°12'1 0.5
2017-Sep-21 17:32N 33°45' W 118°13'0 0.0
2017-Sep-21 17:30N 33°45' W 118°13'3 5.1
2017-Sep-21 16:59N 33°44' W 118°10'3 5.8
2017-Sep-21 16:30N 33°45' W 118°13'2 4.5
2017-Sep-21 15:58N 33°44' W 118°11'2 4.4
2017-Sep-21 15:25N 33°41' W 118°11'4 8.2
2017-Sep-21 14:56N 33°45' W 118°13'510.5
2017-Sep-21 14:25N 33°40' W 118°09'513.3
2017-Sep-21 14:00N 33°45' W 118°13'1 1.9
2017-Sep-21 13:26N 33°44' W 118°12'3 5.4
2017-Sep-21 12:52N 33°41' W 118°11'411.1
2017-Sep-21 12:30N 33°45' W 118°13'4 7.6
2017-Sep-21 12:00N 33°41' W 118°11'0 0.5
2017-Sep-21 11:19N 33°41' W 118°11'412.6
2017-Sep-21 11:00N 33°45' W 118°13'0 0.0
2017-Sep-21 10:30N 33°45' W 118°13'0 0.0
2017-Sep-21 10:00N 33°45' W 118°13'0 0.0
2017-Sep-21 09:30N 33°45' W 118°13'0 0.0
2017-Sep-21 04:33N 33°45' W 118°13'0 0.0
2017-Sep-21 04:28N 33°45' W 118°13'0 0.0
2017-Sep-21 04:00N 33°45' W 118°13'0 0.0
2017-Sep-21 03:29N 33°45' W 118°13'0 0.0
2017-Sep-21 02:37N 33°45' W 118°13'0 0.0
2017-Sep-21 02:29N 33°45' W 118°13'0 0.0
2017-Sep-21 01:58N 33°45' W 118°13'0 0.0
2017-Sep-21 01:30N 33°45' W 118°13'0 0.0
2017-Sep-21 00:55N 33°45' W 118°13'0 0.0
2017-Sep-21 00:30N 33°45' W 118°13'0 0.0
2017-Sep-21 00:00N 33°45' W 118°13'0 0.0
2017-Sep-20 23:30N 33°45' W 118°13'0 0.0
2017-Sep-20 23:00N 33°45' W 118°13'0 0.0
2017-Sep-20 21:47N 33°45' W 118°13'0 0.0
2017-Sep-20 21:28N 33°45' W 118°13'0 0.0
2017-Sep-20 20:59N 33°45' W 118°13'0 0.0
2017-Sep-20 20:28N 33°45' W 118°13'0 0.0
2017-Sep-20 19:59N 33°45' W 118°13'0 0.0
2017-Sep-20 19:30N 33°45' W 118°13'0 0.0
2017-Sep-20 19:00N 33°45' W 118°13'0 0.0
2017-Sep-20 18:10N 33°45' W 118°13'0 0.0
2017-Sep-20 18:00N 33°45' W 118°13'0 0.0
2017-Sep-20 16:54N 33°45' W 118°13'0 0.0
2017-Sep-20 16:30N 33°45' W 118°13'0 0.0
2017-Sep-20 15:42N 33°45' W 118°13'0 0.0
2017-Sep-20 15:30N 33°45' W 118°13'0 0.0
2017-Sep-20 14:56N 33°45' W 118°13'0 0.0
2017-Sep-20 14:00N 33°45' W 118°13'0 0.0
2017-Sep-20 13:30N 33°45' W 118°13'0 0.0
2017-Sep-20 13:00N 33°45' W 118°13'0 0.0
2017-Sep-20 12:29N 33°45' W 118°13'0 0.0
2017-Sep-20 12:00N 33°45' W 118°13'0 0.0
2017-Sep-20 11:30N 33°45' W 118°13'0 0.0
2017-Sep-20 11:00N 33°45' W 118°13'0 0.0
2017-Sep-20 10:30N 33°45' W 118°13'0 0.0
2017-Sep-20 10:00N 33°45' W 118°13'0 0.0
2017-Sep-20 09:29N 33°45' W 118°13'0 0.0
2017-Sep-20 07:52N 33°45' W 118°13'0 0.0
2017-Sep-20 02:27N 33°45' W 118°13'0 0.0
2017-Sep-20 00:24N 33°45' W 118°13'0 0.0
2017-Sep-19 23:59N 33°45' W 118°13'0 0.0
2017-Sep-19 23:10N 33°45' W 118°13'0 0.0
2017-Sep-19 22:59N 33°45' W 118°13'0 0.0
2017-Sep-19 22:30N 33°45' W 118°13'0 0.0
2017-Sep-19 22:00N 33°45' W 118°13'0 0.0
2017-Sep-19 21:29N 33°45' W 118°13'0 0.0
2017-Sep-19 21:00N 33°45' W 118°13'0 0.0
2017-Sep-19 20:29N 33°45' W 118°13'0 0.0
2017-Sep-19 19:52N 33°45' W 118°13'0 0.0
2017-Sep-19 19:30N 33°45' W 118°13'0 0.0
2017-Sep-19 18:58N 33°45' W 118°13'0 0.0
2017-Sep-19 18:17N 33°45' W 118°13'0 0.0
2017-Sep-19 17:57N 33°45' W 118°13'0 0.0
2017-Sep-19 17:28N 33°45' W 118°13'0 0.0
2017-Sep-19 16:50N 33°45' W 118°13'0 0.0
2017-Sep-19 16:26N 33°45' W 118°13'0 0.0
2017-Sep-19 15:55N 33°45' W 118°13'3 6.8
2017-Sep-19 15:30N 33°44' W 118°16'2 3.6
2017-Sep-19 15:00N 33°43' W 118°15'2 2.4
2017-Sep-19 14:03N 33°45' W 118°13'0 0.0
2017-Sep-19 13:49N 33°45' W 118°13'0 0.0
2017-Sep-19 13:22N 33°45' W 118°13'0 0.0
2017-Sep-18 23:35N 33°45' W 118°13'0 0.0
2017-Sep-18 23:22N 33°45' W 118°13'0 0.0
2017-Sep-18 22:58N 33°45' W 118°13'0 0.0
2017-Sep-18 22:30N 33°45' W 118°13'0 0.0
2017-Sep-18 21:59N 33°45' W 118°13'0 0.0
2017-Sep-18 21:29N 33°45' W 118°13'0 0.0
2017-Sep-18 21:00N 33°45' W 118°13'0 0.0
2017-Sep-18 20:29N 33°45' W 118°13'0 0.0
2017-Sep-18 19:59N 33°45' W 118°13'0 0.0
2017-Sep-18 19:29N 33°45' W 118°13'0 0.0
2017-Sep-18 18:52N 33°45' W 118°13'0 0.0
2017-Sep-18 18:30N 33°45' W 118°13'0 0.0
2017-Sep-18 18:00N 33°45' W 118°13'0 0.0
2017-Sep-18 17:17N 33°45' W 118°13'0 0.0
2017-Sep-18 16:57N 33°45' W 118°13'3 7.5
2017-Sep-18 16:29N 33°42' W 118°15'3 2.0
2017-Sep-18 14:43N 33°45' W 118°13'0 0.0
2017-Sep-18 14:17N 33°45' W 118°13'0 0.0
2017-Sep-18 13:56N 33°45' W 118°13'0 0.0
2017-Sep-18 13:30N 33°45' W 118°13'0 0.0
2017-Sep-18 12:52N 33°45' W 118°13'0 0.0
2017-Sep-18 12:09N 33°45' W 118°13'0 0.0
2017-Sep-18 11:56N 33°45' W 118°13'0 0.0
2017-Sep-18 11:21N 33°45' W 118°13'0 0.0
2017-Sep-18 10:55N 33°45' W 118°13'0 0.0
2017-Sep-18 01:35N 33°45' W 118°13'117.3
2017-Sep-18 01:30N 33°44' W 118°12'3 2.9
2017-Sep-18 00:32N 33°42' W 118°15'120.4
2017-Sep-18 00:30N 33°43' W 118°14'2 4.3
2017-Sep-18 00:00N 33°45' W 118°13'0 0.5
2017-Sep-17 23:30N 33°45' W 118°13'0 0.4
2017-Sep-17 23:00N 33°45' W 118°13'0 0.0
2017-Sep-17 22:30N 33°45' W 118°13'0 0.0
2017-Sep-17 21:59N 33°45' W 118°13'0 0.0
2017-Sep-17 21:30N 33°45' W 118°13'0 0.0
2017-Sep-17 21:00N 33°45' W 118°13'0 0.0
2017-Sep-17 20:30N 33°45' W 118°13'0 0.0
2017-Sep-17 19:58N 33°45' W 118°13'0 0.0
2017-Sep-17 17:33N 33°45' W 118°13'0 0.0
2017-Sep-17 17:15N 33°45' W 118°13'0 0.0
2017-Sep-17 17:00N 33°45' W 118°13'0 0.0
2017-Sep-17 13:06N 33°45' W 118°13'0 0.0
2017-Sep-17 13:00N 33°45' W 118°13'0 0.0
2017-Sep-17 12:30N 33°45' W 118°13'0 0.0
2017-Sep-17 11:56N 33°45' W 118°13'0 0.0
2017-Sep-17 11:30N 33°45' W 118°13'0 0.0
2017-Sep-17 10:56N 33°45' W 118°13'0 0.0
2017-Sep-17 10:26N 33°45' W 118°13'0 0.0
2017-Sep-17 09:52N 33°45' W 118°13'0 0.0
2017-Sep-17 09:30N 33°45' W 118°13'0 0.0
2017-Sep-17 08:21N 33°45' W 118°13'0 0.0
2017-Sep-17 07:52N 33°45' W 118°13'0 0.0
2017-Sep-17 07:28N 33°45' W 118°13'0 0.0
2017-Sep-17 07:00N 33°45' W 118°13'0 0.0
2017-Sep-17 06:30N 33°45' W 118°13'0 0.0
2017-Sep-17 05:59N 33°45' W 118°13'0 0.0
2017-Sep-17 03:43N 33°45' W 118°13'0 0.0
2017-Sep-17 03:27N 33°45' W 118°13'0 0.0
2017-Sep-17 02:51N 33°45' W 118°13'0 0.0
2017-Sep-17 02:27N 33°45' W 118°13'0 0.0
2017-Sep-17 01:04N 33°45' W 118°13'112.0
2017-Sep-17 01:00N 33°44' W 118°12'2 3.1
2017-Sep-17 00:26N 33°43' W 118°11'3 5.3
2017-Sep-16 23:57N 33°45' W 118°13'0 0.0
2017-Sep-16 23:25N 33°45' W 118°13'0 0.0
2017-Sep-16 23:00N 33°45' W 118°13'0 0.0
2017-Sep-16 22:10N 33°45' W 118°13'0 0.0
2017-Sep-16 21:58N 33°45' W 118°13'0 0.0
2017-Sep-16 21:26N 33°45' W 118°13'0 0.0
2017-Sep-16 21:00N 33°45' W 118°13'0 0.0
2017-Sep-16 20:30N 33°45' W 118°13'0 0.0
2017-Sep-16 19:44N 33°45' W 118°13'0 0.0
2017-Sep-16 19:25N 33°45' W 118°13'0 0.0
2017-Sep-16 16:46N 33°45' W 118°13'0 0.0
2017-Sep-16 16:29N 33°45' W 118°13'0 0.0
2017-Sep-16 15:46N 33°45' W 118°13'0 0.0
2017-Sep-16 08:38N 33°45' W 118°13'0 0.0
2017-Sep-16 07:55N 33°45' W 118°13'0 0.0
2017-Sep-16 07:30N 33°45' W 118°13'0 0.0
2017-Sep-16 07:00N 33°45' W 118°13'0 0.0
2017-Sep-16 06:30N 33°45' W 118°13'0 0.0
2017-Sep-16 06:00N 33°45' W 118°13'0 0.0
2017-Sep-16 05:27N 33°45' W 118°13'0 0.0
2017-Sep-16 04:46N 33°45' W 118°13'0 0.0
2017-Sep-16 04:29N 33°45' W 118°13'0 0.0
2017-Sep-16 03:58N 33°45' W 118°13'0 0.0
2017-Sep-16 03:30N 33°45' W 118°13'5 9.0
2017-Sep-16 03:00N 33°41' W 118°10'2 3.4
2017-Sep-16 02:24N 33°43' W 118°11'1 1.3
2017-Sep-16 01:58N 33°44' W 118°11'1 1.3
2017-Sep-16 01:30N 33°44' W 118°11'1 1.0
2017-Sep-16 00:42N 33°43' W 118°11'2 9.0
2017-Sep-16 00:30N 33°45' W 118°13'1 1.5
2017-Sep-16 00:00N 33°44' W 118°12'1 1.9
2017-Sep-15 23:27N 33°45' W 118°13'0 0.0
2017-Sep-15 22:52N 33°45' W 118°13'0 0.0
2017-Sep-15 21:18N 33°45' W 118°13'0 0.0
2017-Sep-15 20:51N 33°45' W 118°13'0 0.0
2017-Sep-15 20:30N 33°45' W 118°13'0 0.0
2017-Sep-15 20:00N 33°45' W 118°13'0 0.0
2017-Sep-15 19:26N 33°45' W 118°13'0 0.0
2017-Sep-15 18:09N 33°45' W 118°13'0 0.0
2017-Sep-15 17:58N 33°45' W 118°13'0 0.0
2017-Sep-15 17:30N 33°45' W 118°13'0 0.0
2017-Sep-15 17:00N 33°45' W 118°13'0 0.0
2017-Sep-15 16:27N 33°45' W 118°13'0 0.0
2017-Sep-15 15:59N 33°45' W 118°13'0 0.0
2017-Sep-15 15:29N 33°45' W 118°13'0 0.0
2017-Sep-15 14:57N 33°45' W 118°13'0 0.0
2017-Sep-15 14:19N 33°45' W 118°13'0 0.0
2017-Sep-15 13:56N 33°45' W 118°13'0 0.0
2017-Sep-15 13:06N 33°45' W 118°13'0 0.0
2017-Sep-15 12:42N 33°45' W 118°13'0 0.0
2017-Sep-15 12:18N 33°45' W 118°13'0 0.0
2017-Sep-15 09:47N 33°45' W 118°13'0 0.0
2017-Sep-15 09:24N 33°45' W 118°13'0 0.0
2017-Sep-15 08:56N 33°45' W 118°13'0 0.0
2017-Sep-15 08:29N 33°45' W 118°13'0 0.0
2017-Sep-15 08:00N 33°45' W 118°13'0 0.0
2017-Sep-15 07:30N 33°45' W 118°13'0 0.0
2017-Sep-15 06:58N 33°45' W 118°13'0 0.0
2017-Sep-15 06:30N 33°45' W 118°13'0 0.0
2017-Sep-15 06:00N 33°45' W 118°13'0 0.0
2017-Sep-15 05:30N 33°45' W 118°13'0 0.0
2017-Sep-15 04:58N 33°45' W 118°13'0 0.0
2017-Sep-15 01:30N 33°45' W 118°13'0 0.0
2017-Sep-14 22:33N 33°45' W 118°13'0 0.0
2017-Sep-14 22:29N 33°45' W 118°13'0 0.0
2017-Sep-14 21:56N 33°45' W 118°13'0 0.0
2017-Sep-14 21:25N 33°45' W 118°13'0 0.0
2017-Sep-14 20:46N 33°45' W 118°13'0 0.0
2017-Sep-14 20:28N 33°45' W 118°13'0 0.0
2017-Sep-14 20:00N 33°45' W 118°13'0 0.0
2017-Sep-14 19:16N 33°45' W 118°13'0 0.0
2017-Sep-14 18:13N 33°45' W 118°13'0 0.0
2017-Sep-14 17:53N 33°45' W 118°13'0 0.0
2017-Sep-14 17:30N 33°45' W 118°13'0 0.0
2017-Sep-14 17:00N 33°45' W 118°13'0 0.0
2017-Sep-14 16:29N 33°45' W 118°13'0 0.0
2017-Sep-14 15:54N 33°45' W 118°13'0 0.0
2017-Sep-14 15:26N 33°45' W 118°13'0 0.0
2017-Sep-14 15:00N 33°45' W 118°13'0 0.0
2017-Sep-14 12:49N 33°45' W 118°13'1 1.7
2017-Sep-14 12:16N 33°44' W 118°12'1 0.7
2017-Sep-14 10:51N 33°44' W 118°11'2 5.3
2017-Sep-14 10:28N 33°45' W 118°13'0 0.0
2017-Sep-14 09:59N 33°45' W 118°13'0 0.0
2017-Sep-14 09:29N 33°45' W 118°13'0 0.0
2017-Sep-14 09:00N 33°45' W 118°13'0 0.0
2017-Sep-14 08:25N 33°45' W 118°13'0 0.0
2017-Sep-14 07:59N 33°45' W 118°13'0 0.0
2017-Sep-14 07:30N 33°45' W 118°13'0 0.0
2017-Sep-14 05:38N 33°45' W 118°13'0 0.0
2017-Sep-14 05:29N 33°45' W 118°13'0 0.0
2017-Sep-14 04:54N 33°45' W 118°13'0 0.0
2017-Sep-14 04:20N 33°45' W 118°13'0 0.0
2017-Sep-14 03:59N 33°45' W 118°13'0 0.0
2017-Sep-14 03:30N 33°45' W 118°13'0 0.0
2017-Sep-14 02:05N 33°45' W 118°13'0 0.0
2017-Sep-14 01:53N 33°45' W 118°13'0 0.0
2017-Sep-14 01:30N 33°45' W 118°13'0 0.0
2017-Sep-13 23:56N 33°45' W 118°13'0 0.0
2017-Sep-13 23:30N 33°45' W 118°13'0 0.0
2017-Sep-13 23:00N 33°45' W 118°13'0 0.0
2017-Sep-13 22:29N 33°45' W 118°13'0 0.0
2017-Sep-13 21:57N 33°45' W 118°13'0 0.0
2017-Sep-13 21:25N 33°45' W 118°13'0 0.0
2017-Sep-13 21:00N 33°45' W 118°13'0 0.0
2017-Sep-13 20:29N 33°45' W 118°13'0 0.0
2017-Sep-13 20:00N 33°45' W 118°13'0 0.0
2017-Sep-13 19:29N 33°45' W 118°13'0 0.0
2017-Sep-13 19:00N 33°45' W 118°13'0 0.0
2017-Sep-13 18:30N 33°45' W 118°13'0 0.0
2017-Sep-13 17:59N 33°45' W 118°13'0 0.0
2017-Sep-13 17:30N 33°45' W 118°13'0 0.0
2017-Sep-13 16:37N 33°45' W 118°13'0 0.0
2017-Sep-13 16:18N 33°45' W 118°13'0 0.0
2017-Sep-13 15:58N 33°45' W 118°13'0 0.0
2017-Sep-13 15:28N 33°45' W 118°13'0 0.0
2017-Sep-13 15:00N 33°45' W 118°13'0 0.0
2017-Sep-13 14:21N 33°45' W 118°13'0 0.0
2017-Sep-13 13:00N 33°45' W 118°13'0 0.0
2017-Sep-13 12:30N 33°45' W 118°13'0 0.0
2017-Sep-13 11:09N 33°45' W 118°13'0 0.0
2017-Sep-13 11:00N 33°45' W 118°13'0 0.0
2017-Sep-13 09:47N 33°45' W 118°13'0 0.0
2017-Sep-13 09:23N 33°45' W 118°13'0 0.0
2017-Sep-13 08:56N 33°45' W 118°13'0 0.0
2017-Sep-13 08:28N 33°45' W 118°13'0 0.0
2017-Sep-13 07:43N 33°45' W 118°13'0 0.0
2017-Sep-13 07:30N 33°45' W 118°13'0 0.0
2017-Sep-13 06:59N 33°45' W 118°13'0 0.0
2017-Sep-13 02:09N 33°45' W 118°13'0 0.0
2017-Sep-13 01:58N 33°45' W 118°13'0 0.0
2017-Sep-13 01:28N 33°45' W 118°13'0 0.0
2017-Sep-13 00:51N 33°45' W 118°13'0 0.0
2017-Sep-12 23:18N 33°45' W 118°13'0 0.0
2017-Sep-12 22:58N 33°45' W 118°13'0 0.0
2017-Sep-12 22:21N 33°45' W 118°13'0 0.0
2017-Sep-12 22:00N 33°45' W 118°13'0 0.0
2017-Sep-12 21:30N 33°45' W 118°13'0 0.0
2017-Sep-12 20:34N 33°45' W 118°13'0 0.0
2017-Sep-12 20:27N 33°45' W 118°13'0 0.0
2017-Sep-12 19:59N 33°45' W 118°13'0 0.0
2017-Sep-12 18:29N 33°45' W 118°13'0 0.0
2017-Sep-12 17:58N 33°45' W 118°13'0 0.0
2017-Sep-12 17:26N 33°45' W 118°13'0 0.0
2017-Sep-12 16:58N 33°45' W 118°13'0 0.0
2017-Sep-12 16:29N 33°45' W 118°13'0 0.0
2017-Sep-12 15:59N 33°45' W 118°13'0 0.0
2017-Sep-12 15:31N 33°45' W 118°13'0 0.0
2017-Sep-12 14:59N 33°45' W 118°13'0 0.0
2017-Sep-12 14:08N 33°45' W 118°13'0 0.0
2017-Sep-12 14:00N 33°45' W 118°13'0 0.0
2017-Sep-12 13:30N 33°45' W 118°13'0 0.0
2017-Sep-12 13:00N 33°45' W 118°13'0 0.0
2017-Sep-12 12:29N 33°45' W 118°13'0 0.0
2017-Sep-12 12:00N 33°45' W 118°13'0 0.0
2017-Sep-12 11:28N 33°45' W 118°13'0 0.0
2017-Sep-12 11:00N 33°45' W 118°13'0 0.0
2017-Sep-12 10:28N 33°45' W 118°13'0 0.0
2017-Sep-12 10:00N 33°45' W 118°13'0 0.0
2017-Sep-12 08:33N 33°45' W 118°13'0 0.0
2017-Sep-12 08:27N 33°45' W 118°13'0 0.0
2017-Sep-12 08:00N 33°45' W 118°13'0 0.0
2017-Sep-12 07:30N 33°45' W 118°13'0 0.0
2017-Sep-12 06:54N 33°45' W 118°13'1 2.4
2017-Sep-12 06:30N 33°44' W 118°13'2 3.7
2017-Sep-12 06:00N 33°43' W 118°11'2 4.4
2017-Sep-12 05:30N 33°45' W 118°13'0 0.0
2017-Sep-12 04:59N 33°45' W 118°13'0 0.0
2017-Sep-12 04:30N 33°45' W 118°13'0 0.0
2017-Sep-12 04:00N 33°45' W 118°13'3 3.3
2017-Sep-12 03:14N 33°43' W 118°11'0 0.6
2017-Sep-12 02:48N 33°43' W 118°11'3 3.9
2017-Sep-12 02:07N 33°45' W 118°13'0 0.0
2017-Sep-12 02:00N 33°45' W 118°13'  

Dump ship's entire track history